Time;durP1;ratioP1;P1;durP2;ratioP2;P2;SDS_P1;SDS_P2;PMS_P1;PMS_P2;Temp;Humidity;BMP_temperature;BMP_pressure;BME280_temperature;BME280_humidity;BME280_pressure;Samples;Min_cycle;Max_cycle;Signal;HPM_P1;HPM_P2
2022/08/20 00:01:21;;;;;;;3.78;2.53;;;18.90;99.90;;;;;;5054317;28;20199;-72
2022/08/20 00:03:48;;;;;;;3.30;2.60;;;19.00;99.90;;;;;;5047296;28;20199;-72
2022/08/20 00:06:19;;;;;;;3.63;3.00;;;19.10;99.90;;;;;;5054378;28;20731;-72
2022/08/20 00:08:47;;;;;;;3.15;2.50;;;19.20;99.90;;;;;;5054457;28;20638;-72
2022/08/20 00:11:17;;;;;;;3.53;2.75;;;19.10;99.90;;;;;;5051023;28;20560;-72
2022/08/20 00:13:47;;;;;;;2.95;2.70;;;19.20;99.90;;;;;;5038402;28;20227;-73
2022/08/20 00:16:16;;;;;;;4.80;3.42;;;19.00;99.90;;;;;;5053702;28;20216;-72
2022/08/20 00:18:43;;;;;;;3.58;2.67;;;19.00;99.90;;;;;;5050275;28;20203;-72
2022/08/20 00:21:12;;;;;;;3.67;2.53;;;19.10;99.90;;;;;;5051064;28;20211;-66
2022/08/20 00:23:42;;;;;;;3.00;2.78;;;19.20;99.90;;;;;;5053955;28;20191;-67
2022/08/20 00:26:10;;;;;;;2.60;2.28;;;19.30;99.90;;;;;;5036671;28;20204;-66
2022/08/20 00:28:37;;;;;;;3.15;2.40;;;19.40;99.90;;;;;;5060573;28;20202;-66
2022/08/20 00:31:06;;;;;;;2.53;2.25;;;19.30;99.90;;;;;;5045889;28;20638;-66
2022/08/20 00:33:33;;;;;;;3.45;2.42;;;19.10;99.90;;;;;;5054026;28;20227;-66
2022/08/20 00:36:05;;;;;;;3.25;2.88;;;19.10;99.90;;;;;;5053123;28;20226;-66
2022/08/20 00:38:33;;;;;;;3.50;2.45;;;19.20;99.90;;;;;;5050718;28;20287;-66
2022/08/20 00:41:02;;;;;;;3.58;2.60;;;19.20;99.90;;;;;;5048254;28;20213;-66
2022/08/20 00:43:35;;;;;;;4.15;2.50;;;19.10;99.90;;;;;;5045459;28;20191;-66
2022/08/20 00:46:06;;;;;;;2.60;2.40;;;19.10;99.90;;;;;;5043870;28;20207;-66
2022/08/20 00:48:35;;;;;;;2.60;2.40;;;19.20;99.90;;;;;;5051101;28;20199;-66
2022/08/20 00:51:07;;;;;;;4.97;2.60;;;19.20;99.90;;;;;;5046843;28;20203;-66
2022/08/20 00:53:36;;;;;;;3.10;2.58;;;19.10;99.90;;;;;;5053583;28;20226;-66
2022/08/20 00:56:05;;;;;;;3.50;2.65;;;19.00;99.90;;;;;;5058901;28;20202;-66
2022/08/20 00:58:33;;;;;;;2.78;2.58;;;18.90;99.90;;;;;;5052660;28;20199;-66
2022/08/20 01:01:00;;;;;;;4.47;2.60;;;18.90;99.90;;;;;;5050646;28;20192;-66
2022/08/20 01:03:27;;;;;;;3.80;2.55;;;19.00;99.90;;;;;;5052694;28;20195;-66
2022/08/20 01:05:54;;;;;;;3.47;2.70;;;19.00;99.90;;;;;;5048442;28;20210;-66
2022/08/20 01:08:25;;;;;;;2.78;2.50;;;18.90;99.90;;;;;;5060670;28;20225;-66
2022/08/20 01:11:05;;;;;;;3.90;2.88;;;19.00;99.90;;;;;;5045593;28;20210;-66
2022/08/20 01:13:37;;;;;;;2.80;2.50;;;19.00;99.90;;;;;;5051893;28;20803;-66
2022/08/20 01:16:08;;;;;;;2.72;2.53;;;19.00;99.90;;;;;;5046937;28;20203;-66
2022/08/20 01:18:37;;;;;;;5.43;2.45;;;19.00;99.90;;;;;;5054369;28;20203;-66
2022/08/20 01:21:07;;;;;;;3.80;2.33;;;19.00;99.90;;;;;;5049604;28;20290;-66
2022/08/20 01:23:42;;;;;;;2.78;2.58;;;19.00;99.90;;;;;;5043750;28;20191;-66
2022/08/20 01:26:12;;;;;;;2.75;2.20;;;19.00;99.90;;;;;;5049783;28;20198;-66
2022/08/20 01:28:42;;;;;;;3.08;2.78;;;18.90;99.90;;;;;;5051961;28;20195;-66
2022/08/20 01:31:11;;;;;;;3.22;2.92;;;19.00;99.90;;;;;;5052355;28;20199;-66
2022/08/20 01:33:38;;;;;;;6.80;2.92;;;19.00;99.90;;;;;;5052027;28;20944;-66
2022/08/20 01:36:06;;;;;;;2.70;2.50;;;19.00;99.90;;;;;;5048647;28;20206;-66
2022/08/20 01:38:34;;;;;;;4.90;2.80;;;18.90;99.90;;;;;;5052626;28;20650;-66
2022/08/20 01:41:22;;;;;;;3.33;2.95;;;18.90;99.90;;;;;;5062459;28;20294;-66
2022/08/20 01:43:55;;;;;;;3.50;3.20;;;18.80;99.90;;;;;;5036638;28;20753;-66
2022/08/20 01:46:23;;;;;;;5.70;2.92;;;18.60;99.90;;;;;;5052774;28;20211;-66
2022/08/20 01:48:50;;;;;;;5.40;2.92;;;18.60;99.90;;;;;;5049862;28;20563;-66
2022/08/20 01:51:23;;;;;;;5.32;3.20;;;18.40;99.90;;;;;;5054226;28;20207;-66
2022/08/20 01:53:51;;;;;;;4.32;2.92;;;18.50;99.90;;;;;;5060404;28;20229;-66
2022/08/20 01:56:23;;;;;;;3.08;2.72;;;18.50;99.90;;;;;;5051930;28;20832;-67
2022/08/20 01:58:53;;;;;;;4.07;2.60;;;18.60;99.90;;;;;;5052374;28;20199;-67
2022/08/20 02:01:29;;;;;;;4.03;2.95;;;18.60;99.90;;;;;;5046494;28;20203;-66
2022/08/20 02:03:56;;;;;;;5.22;2.78;;;18.60;99.90;;;;;;5054782;28;20194;-66
2022/08/20 02:06:25;;;;;;;5.60;3.30;;;18.60;99.90;;;;;;5053638;28;20203;-66
2022/08/20 02:08:53;;;;;;;3.08;2.78;;;18.50;99.90;;;;;;5059611;28;20209;-66
2022/08/20 02:11:23;;;;;;;3.40;2.67;;;18.40;99.90;;;;;;5050076;28;20199;-66
2022/08/20 02:13:51;;;;;;;3.20;2.90;;;18.40;99.90;;;;;;5042281;28;20220;-66
2022/08/20 02:16:21;;;;;;;3.30;2.75;;;18.40;99.90;;;;;;5033838;28;20210;-66
2022/08/20 02:18:53;;;;;;;4.30;2.80;;;18.60;99.90;;;;;;5052749;28;20194;-66
2022/08/20 02:21:20;;;;;;;3.40;2.97;;;18.60;99.90;;;;;;5051480;28;20198;-66
2022/08/20 02:23:47;;;;;;;3.15;2.85;;;18.60;99.90;;;;;;5051832;28;20197;-66
2022/08/20 02:26:17;;;;;;;4.65;2.95;;;18.60;99.90;;;;;;5052047;28;20671;-66
2022/08/20 02:28:48;;;;;;;2.92;2.30;;;18.60;99.90;;;;;;5057059;28;20216;-66
2022/08/20 02:31:15;;;;;;;4.80;2.60;;;18.60;99.90;;;;;;5050144;28;20210;-66
2022/08/20 02:33:42;;;;;;;3.88;2.90;;;18.70;99.90;;;;;;5051283;28;20223;-66
2022/08/20 02:36:11;;;;;;;3.83;3.13;;;18.50;99.90;;;;;;5053071;28;20273;-66
2022/08/20 02:38:38;;;;;;;3.92;3.00;;;18.50;99.90;;;;;;5049470;28;20322;-66
2022/08/20 02:41:05;;;;;;;3.28;2.88;;;18.50;99.90;;;;;;5051970;28;20555;-66
2022/08/20 02:43:32;;;;;;;3.50;2.90;;;18.50;99.90;;;;;;5051876;28;20191;-66
2022/08/20 02:46:01;;;;;;;3.88;2.90;;;18.50;99.90;;;;;;5052372;28;20203;-66
2022/08/20 02:48:30;;;;;;;3.47;3.17;;;18.60;99.90;;;;;;5057398;28;20195;-66
2022/08/20 02:51:00;;;;;;;4.15;2.72;;;18.70;99.90;;;;;;5050851;28;20207;-66
2022/08/20 02:53:29;;;;;;;3.72;3.15;;;18.80;99.90;;;;;;5039769;28;20223;-66
2022/08/20 02:55:56;;;;;;;6.13;2.90;;;18.70;99.90;;;;;;5053493;28;20233;-66
2022/08/20 02:58:23;;;;;;;4.22;2.90;;;18.70;99.90;;;;;;5055787;28;20205;-66
2022/08/20 03:00:50;;;;;;;4.50;2.75;;;18.70;99.90;;;;;;5045532;28;20815;-66
2022/08/20 03:03:21;;;;;;;6.00;2.97;;;18.40;99.90;;;;;;5051689;28;20203;-66
2022/08/20 03:05:50;;;;;;;3.42;3.10;;;18.30;99.90;;;;;;5056975;28;20203;-66
2022/08/20 03:08:17;;;;;;;3.63;3.10;;;18.30;99.90;;;;;;5048027;28;20206;-66
2022/08/20 03:10:46;;;;;;;4.10;2.75;;;18.40;99.90;;;;;;5049375;28;20219;-66
2022/08/20 03:13:14;;;;;;;7.13;2.70;;;18.40;99.90;;;;;;5046497;28;20218;-66
2022/08/20 03:15:43;;;;;;;2.95;2.53;;;18.40;99.90;;;;;;5051226;28;20559;-66
2022/08/20 03:18:11;;;;;;;3.00;2.80;;;18.40;99.90;;;;;;5052020;28;20218;-66
2022/08/20 03:20:39;;;;;;;5.13;2.80;;;18.60;99.90;;;;;;5045505;28;20658;-66
2022/08/20 03:23:06;;;;;;;3.90;2.85;;;18.60;99.90;;;;;;5049936;28;20767;-66
2022/08/20 03:25:34;;;;;;;4.05;3.13;;;18.60;99.90;;;;;;5045421;28;20591;-66
2022/08/20 03:28:01;;;;;;;3.22;2.67;;;18.70;99.90;;;;;;5055846;28;20210;-66
2022/08/20 03:30:29;;;;;;;2.88;2.67;;;18.70;99.90;;;;;;5050966;28;20247;-66
2022/08/20 03:32:57;;;;;;;3.05;2.35;;;18.80;99.90;;;;;;5060646;28;20223;-66
2022/08/20 03:35:26;;;;;;;3.30;2.78;;;18.70;99.90;;;;;;5050851;28;21911;-66
2022/08/20 03:37:54;;;;;;;4.07;2.75;;;18.80;99.90;;;;;;5057507;28;20660;-67
2022/08/20 03:40:30;;;;;;;3.83;2.97;;;18.70;99.90;;;;;;5050677;28;20253;-66
2022/08/20 03:42:58;;;;;;;3.13;2.83;;;18.70;99.90;;;;;;5030242;28;20533;-66
2022/08/20 03:45:26;;;;;;;6.28;2.90;;;18.60;99.90;;;;;;5052124;28;20274;-66
2022/08/20 03:47:54;;;;;;;3.97;3.03;;;18.60;99.90;;;;;;5054395;28;20204;-66
2022/08/20 03:50:24;;;;;;;5.32;3.00;;;18.60;99.90;;;;;;5055686;28;20209;-66
2022/08/20 03:52:52;;;;;;;3.55;3.20;;;18.60;99.90;;;;;;5045884;28;20211;-66
2022/08/20 03:55:22;;;;;;;6.38;3.42;;;18.70;99.90;;;;;;5054365;28;20230;-66
2022/08/20 03:57:51;;;;;;;4.82;3.13;;;18.70;99.90;;;;;;5043157;28;20213;-66
2022/08/20 04:00:22;;;;;;;3.50;3.20;;;18.70;99.90;;;;;;5056764;28;20248;-66
2022/08/20 04:02:49;;;;;;;4.57;2.92;;;18.70;99.90;;;;;;5051231;28;20249;-66
2022/08/20 04:05:16;;;;;;;4.10;3.55;;;18.70;99.90;;;;;;5054533;28;20202;-66
2022/08/20 04:07:43;;;;;;;4.78;3.10;;;18.60;99.90;;;;;;5054193;28;20198;-66
2022/08/20 04:10:12;;;;;;;4.97;3.40;;;18.60;99.90;;;;;;5054618;28;20203;-66
2022/08/20 04:12:40;;;;;;;4.70;3.47;;;18.70;99.90;;;;;;5055979;28;20221;-66
2022/08/20 04:15:09;;;;;;;4.85;3.50;;;18.70;99.90;;;;;;5054687;28;20219;-66
2022/08/20 04:17:38;;;;;;;4.85;3.50;;;18.70;99.90;;;;;;5054850;28;20207;-66
2022/08/20 04:20:06;;;;;;;4.20;3.40;;;18.60;99.90;;;;;;5057223;28;20210;-66
2022/08/20 04:22:33;;;;;;;4.18;3.35;;;18.70;99.90;;;;;;5053819;28;20199;-66
2022/08/20 04:25:00;;;;;;;4.00;3.42;;;18.60;99.90;;;;;;5049369;28;20203;-66
2022/08/20 04:27:27;;;;;;;5.47;3.53;;;18.70;99.90;;;;;;5056014;28;20579;-66
2022/08/20 04:29:55;;;;;;;4.25;3.83;;;18.70;99.90;;;;;;5054527;28;20302;-67
2022/08/20 04:32:22;;;;;;;8.45;4.63;;;18.70;99.90;;;;;;5058825;28;20229;-66
2022/08/20 04:34:51;;;;;;;4.93;4.40;;;18.70;99.90;;;;;;5046352;28;20230;-67
2022/08/20 04:37:20;;;;;;;5.00;3.78;;;18.70;99.90;;;;;;5049420;28;20668;-67
2022/08/20 04:40:52;;;;;;;3.30;2.97;;;18.80;99.90;;;;;;5047417;28;20204;-66
2022/08/20 04:42:36;;;;;;;5.30;3.65;;;18.80;99.90;;;;;;5045263;28;20203;-67
2022/08/20 04:45:07;;;;;;;4.25;3.85;;;18.80;99.90;;;;;;5043178;28;20203;-67
2022/08/20 04:47:35;;;;;;;4.25;3.63;;;18.80;99.90;;;;;;5045380;28;20208;-67
2022/08/20 04:50:02;;;;;;;5.18;3.00;;;18.80;99.90;;;;;;5054545;28;20527;-66
2022/08/20 04:52:31;;;;;;;6.90;4.85;;;18.80;99.90;;;;;;5053259;28;20628;-66
2022/08/20 04:54:58;;;;;;;4.32;3.92;;;18.80;99.90;;;;;;5045653;28;20312;-67
2022/08/20 04:57:26;;;;;;;4.82;4.03;;;18.80;99.90;;;;;;5041724;28;20206;-66
2022/08/20 04:59:53;;;;;;;5.60;3.45;;;18.80;99.90;;;;;;5052726;28;20551;-66
2022/08/20 05:02:22;;;;;;;4.32;3.47;;;18.70;99.90;;;;;;5052222;28;20697;-67
2022/08/20 05:04:49;;;;;;;3.35;3.05;;;18.80;99.90;;;;;;5052940;28;20195;-66
2022/08/20 05:07:17;;;;;;;6.95;3.70;;;18.70;99.90;;;;;;5049113;28;20573;-67
2022/08/20 05:09:45;;;;;;;3.83;3.47;;;18.80;99.90;;;;;;5047871;28;20257;-66
2022/08/20 05:12:16;;;;;;;5.40;3.40;;;18.80;99.90;;;;;;5051584;28;20215;-67
2022/08/20 05:14:44;;;;;;;6.13;3.63;;;18.90;99.90;;;;;;5046159;28;20306;-66
2022/08/20 05:17:13;;;;;;;6.72;3.40;;;18.90;99.90;;;;;;5052610;28;20700;-67
2022/08/20 05:19:41;;;;;;;7.00;3.67;;;18.90;99.90;;;;;;5050154;28;20218;-66
2022/08/20 05:22:08;;;;;;;5.57;4.30;;;18.90;99.90;;;;;;5049613;28;20207;-66
2022/08/20 05:24:35;;;;;;;5.15;4.57;;;18.90;99.90;;;;;;5045705;28;20191;-66
2022/08/20 05:27:02;;;;;;;5.60;4.00;;;18.90;99.90;;;;;;5048852;28;20665;-67
2022/08/20 05:29:29;;;;;;;5.95;3.67;;;18.90;99.90;;;;;;5051260;28;20199;-66
2022/08/20 05:31:56;;;;;;;4.38;3.40;;;18.90;99.90;;;;;;5052105;28;20203;-67
2022/08/20 05:34:24;;;;;;;5.13;3.40;;;18.90;99.90;;;;;;5052563;28;20219;-67
2022/08/20 05:36:52;;;;;;;4.75;3.20;;;19.00;99.90;;;;;;5048553;28;20218;-67
2022/08/20 05:39:21;;;;;;;4.00;3.63;;;18.90;99.90;;;;;;5042358;28;20201;-66
2022/08/20 05:41:50;;;;;;;5.85;3.60;;;18.90;99.90;;;;;;5052911;28;20253;-66
2022/08/20 05:44:18;;;;;;;3.40;3.10;;;18.90;99.90;;;;;;5053213;28;20202;-67
2022/08/20 05:46:46;;;;;;;4.35;3.95;;;19.00;99.90;;;;;;5044895;28;20218;-67
2022/08/20 05:49:15;;;;;;;3.95;3.63;;;19.00;99.90;;;;;;5043697;28;20211;-67
2022/08/20 05:51:42;;;;;;;9.88;7.05;;;19.10;99.90;;;;;;5049516;28;20195;-66
2022/08/20 05:54:11;;;;;;;9.43;6.82;;;19.10;99.90;;;;;;5052470;28;20225;-67
2022/08/20 05:56:38;;;;;;;5.78;5.00;;;19.10;99.90;;;;;;5053287;28;20553;-67
2022/08/20 05:59:07;;;;;;;7.40;4.38;;;19.20;99.90;;;;;;5049030;28;20245;-67
2022/08/20 06:01:36;;;;;;;7.72;5.13;;;19.30;99.90;;;;;;5051879;28;20205;-67
2022/08/20 06:06:49;;;;;;;7.50;5.45;;;19.30;99.90;;;;;;5048498;28;20332;-67
2022/08/20 06:09:19;;;;;;;8.32;4.78;;;19.30;99.90;;;;;;5050186;28;20285;-67
2022/08/20 06:11:46;;;;;;;7.45;5.55;;;19.50;99.90;;;;;;5049081;28;20214;-67
2022/08/20 06:14:15;;;;;;;7.30;5.20;;;19.70;99.90;;;;;;5047530;28;20564;-66
2022/08/20 06:16:42;;;;;;;9.18;5.43;;;19.80;99.90;;;;;;5049884;28;20289;-67
2022/08/20 06:19:09;;;;;;;8.18;5.43;;;19.90;99.90;;;;;;5043872;28;20199;-66
2022/08/20 06:21:36;;;;;;;10.52;5.68;;;19.90;99.90;;;;;;5049285;28;20202;-66
2022/08/20 06:24:04;;;;;;;12.18;7.43;;;20.00;99.90;;;;;;5048800;28;20202;-66
2022/08/20 06:26:33;;;;;;;8.40;7.22;;;20.10;99.90;;;;;;5045132;28;20195;-67
2022/08/20 06:29:01;;;;;;;9.88;6.68;;;20.30;99.90;;;;;;5044026;28;20203;-67
2022/08/20 06:31:28;;;;;;;8.15;6.95;;;20.30;99.90;;;;;;5049818;28;20195;-66
2022/08/20 06:33:55;;;;;;;9.38;6.85;;;20.40;99.90;;;;;;5046775;28;20346;-67
2022/08/20 06:36:23;;;;;;;7.82;6.38;;;20.40;99.90;;;;;;5049429;28;20195;-67
2022/08/20 06:38:50;;;;;;;9.32;6.88;;;20.50;99.90;;;;;;5046132;28;20312;-66
2022/08/20 06:41:17;;;;;;;11.23;6.85;;;20.60;99.90;;;;;;5049724;28;20195;-67
2022/08/20 06:43:45;;;;;;;9.90;6.65;;;20.60;99.90;;;;;;5049629;28;20653;-66
2022/08/20 06:46:13;;;;;;;9.77;6.70;;;20.50;99.90;;;;;;5045846;28;20564;-66
2022/08/20 06:48:40;;;;;;;9.45;7.22;;;20.60;99.90;;;;;;5043566;28;20294;-66
2022/08/20 06:51:08;;;;;;;11.63;7.68;;;20.70;99.90;;;;;;5048307;28;20210;-67
2022/08/20 06:53:35;;;;;;;13.10;7.75;;;20.70;99.90;;;;;;5046280;28;20289;-66
2022/08/20 06:56:03;;;;;;;8.20;7.22;;;20.80;99.90;;;;;;5047663;28;20231;-67
2022/08/20 06:58:30;;;;;;;9.57;7.28;;;20.80;99.90;;;;;;5048775;28;20658;-67
2022/08/20 07:00:59;;;;;;;9.00;7.32;;;20.90;99.90;;;;;;5051795;28;20216;-67
2022/08/20 07:03:27;;;;;;;9.05;7.07;;;20.90;99.90;;;;;;5051735;28;20207;-67
2022/08/20 07:05:54;;;;;;;7.95;6.57;;;20.90;99.90;;;;;;5052288;28;20203;-67
2022/08/20 07:08:21;;;;;;;9.02;7.13;;;21.00;99.90;;;;;;5055694;28;20198;-67
2022/08/20 07:10:49;;;;;;;10.02;7.72;;;21.00;99.90;;;;;;5054787;28;20617;-67
2022/08/20 07:13:16;;;;;;;9.13;7.65;;;21.20;99.90;;;;;;5055827;28;20575;-67
2022/08/20 07:15:43;;;;;;;10.27;7.90;;;21.30;99.90;;;;;;5046860;28;20583;-67
2022/08/20 07:18:13;;;;;;;12.15;8.90;;;21.40;99.90;;;;;;5052618;28;20230;-67
2022/08/20 07:20:40;;;;;;;10.00;8.00;;;21.30;99.90;;;;;;5053782;28;20203;-67
2022/08/20 07:23:10;;;;;;;11.40;8.73;;;21.40;99.90;;;;;;5055979;28;20217;-67
2022/08/20 07:25:38;;;;;;;11.32;9.35;;;21.50;99.90;;;;;;5050001;28;20727;-67
2022/08/20 07:28:07;;;;;;;13.82;9.65;;;21.70;99.90;;;;;;5058249;28;20206;-67
2022/08/20 07:33:21;;;;;;;16.92;10.95;;;21.70;99.90;;;;;;5055958;28;20648;-67
2022/08/20 07:35:48;;;;;;;12.27;9.02;;;21.50;99.90;;;;;;5053960;28;20582;-67
2022/08/20 07:38:23;;;;;;;15.77;10.60;;;21.50;99.90;;;;;;5048235;28;20196;-67
2022/08/20 07:40:51;;;;;;;13.60;10.70;;;21.50;99.90;;;;;;5047554;28;20195;-67
2022/08/20 07:43:18;;;;;;;15.63;11.55;;;21.30;99.90;;;;;;5056648;28;20559;-67
2022/08/20 07:45:44;;;;;;;11.32;9.07;;;21.30;99.90;;;;;;5052403;28;20192;-67
2022/08/20 07:48:13;;;;;;;10.45;8.63;;;21.40;99.90;;;;;;5050058;28;20206;-66
2022/08/20 07:50:42;;;;;;;11.65;9.40;;;21.30;99.90;;;;;;5051419;28;20195;-67
2022/08/20 07:53:10;;;;;;;11.82;9.25;;;21.30;99.90;;;;;;5053044;28;20198;-67
2022/08/20 07:55:40;;;;;;;13.93;9.75;;;21.50;99.90;;;;;;5049160;28;20249;-66
2022/08/20 07:58:11;;;;;;;9.43;8.30;;;21.50;99.90;;;;;;5053874;28;20298;-67
2022/08/20 08:00:38;;;;;;;12.40;9.40;;;21.60;99.90;;;;;;5053545;28;20199;-66
2022/08/20 08:03:06;;;;;;;12.45;9.05;;;21.60;99.90;;;;;;5039554;28;20559;-67
2022/08/20 08:05:35;;;;;;;12.63;9.27;;;21.90;99.90;;;;;;5046871;28;20210;-67
2022/08/20 08:08:04;;;;;;;11.52;9.25;;;22.00;99.90;;;;;;5053734;28;20553;-67
2022/08/20 08:10:31;;;;;;;11.68;9.90;;;22.30;99.90;;;;;;5053358;28;20207;-66
2022/08/20 08:13:02;;;;;;;13.88;9.70;;;22.30;99.90;;;;;;5053952;28;20557;-66
2022/08/20 08:15:32;;;;;;;11.68;9.35;;;22.60;99.90;;;;;;5049907;28;20229;-67
2022/08/20 08:18:04;;;;;;;11.02;8.77;;;22.40;99.90;;;;;;5052163;28;20231;-67
2022/08/20 08:20:32;;;;;;;10.68;9.05;;;22.70;99.90;;;;;;5051325;28;20294;-67
2022/08/20 08:22:59;;;;;;;11.13;8.93;;;22.90;99.90;;;;;;5049684;28;20222;-66
2022/08/20 08:25:28;;;;;;;12.75;9.40;;;22.80;99.90;;;;;;5047870;28;20199;-68
2022/08/20 08:27:55;;;;;;;12.50;10.13;;;23.10;99.90;;;;;;5050432;28;20645;-67
2022/08/20 08:30:22;;;;;;;13.52;10.77;;;22.70;99.90;;;;;;5050243;28;20210;-67
2022/08/20 08:35:33;;;;;;;13.15;10.00;;;22.70;99.90;;;;;;5053928;28;20700;-67
2022/08/20 08:38:01;;;;;;;14.18;10.23;;;23.00;99.90;;;;;;5047722;28;20207;-68
2022/08/20 08:40:30;;;;;;;12.48;9.23;;;23.30;99.90;;;;;;5047412;28;20348;-67
2022/08/20 08:43:00;;;;;;;12.30;9.38;;;23.20;99.90;;;;;;5049374;28;20677;-67
2022/08/20 08:45:34;;;;;;;12.73;9.45;;;23.40;99.90;;;;;;5058857;28;20304;-67
2022/08/20 08:48:01;;;;;;;13.02;9.50;;;23.50;99.90;;;;;;5055294;28;20211;-68
2022/08/20 08:50:33;;;;;;;11.35;9.52;;;23.20;99.90;;;;;;5053584;28;20203;-68
2022/08/20 08:53:04;;;;;;;10.52;8.25;;;23.40;99.90;;;;;;5056076;28;20203;-67
2022/08/20 08:55:32;;;;;;;11.05;9.02;;;23.30;99.90;;;;;;5045463;28;20580;-67
2022/08/20 08:58:02;;;;;;;13.70;8.73;;;23.30;99.90;;;;;;5049339;28;20195;-67
2022/08/20 09:00:30;;;;;;;10.77;8.95;;;23.50;99.90;;;;;;5048083;28;20207;-67
2022/08/20 09:03:01;;;;;;;11.32;9.55;;;23.50;99.90;;;;;;5055326;28;20654;-67
2022/08/20 09:05:34;;;;;;;15.77;12.55;;;23.90;99.90;;;;;;5051408;28;20650;-68
2022/08/20 09:08:05;;;;;;;16.02;12.18;;;23.70;99.90;;;;;;5048752;28;21746;-67
2022/08/20 09:10:33;;;;;;;14.80;11.75;;;23.70;99.90;;;;;;5053595;28;20208;-67
2022/08/20 09:13:02;;;;;;;15.38;11.82;;;23.80;99.90;;;;;;5041227;28;20220;-67
2022/08/20 09:15:29;;;;;;;11.43;9.65;;;24.10;99.90;;;;;;5047003;28;20223;-67
2022/08/20 09:17:56;;;;;;;12.68;9.63;;;24.40;99.90;;;;;;5059818;28;20207;-67
2022/08/20 09:20:23;;;;;;;14.02;10.88;;;24.80;99.90;;;;;;5044087;28;20596;-67
2022/08/20 09:22:50;;;;;;;13.77;10.68;;;25.40;99.90;;;;;;5054487;28;20549;-67
2022/08/20 09:25:17;;;;;;;14.77;12.18;;;25.60;99.90;;;;;;5052632;28;20577;-68
2022/08/20 09:27:47;;;;;;;13.18;10.43;;;25.30;99.90;;;;;;5055886;28;20210;-67
2022/08/20 09:30:14;;;;;;;14.05;11.85;;;24.70;99.90;;;;;;5055785;28;20195;-67
2022/08/20 09:32:42;;;;;;;15.60;12.27;;;24.40;99.90;;;;;;5051809;28;20666;-68
2022/08/20 09:35:10;;;;;;;12.32;10.27;;;24.20;99.90;;;;;;5046206;28;20250;-68
2022/08/20 09:37:37;;;;;;;12.85;10.30;;;24.50;99.90;;;;;;5052229;28;20195;-68
2022/08/20 09:40:06;;;;;;;14.90;10.55;;;24.50;99.90;;;;;;5050660;28;20204;-68
2022/08/20 09:42:34;;;;;;;14.13;10.48;;;24.40;99.90;;;;;;5049923;28;20211;-68
2022/08/20 09:45:03;;;;;;;15.43;11.77;;;24.70;99.90;;;;;;5051060;28;20195;-68
2022/08/20 09:47:30;;;;;;;13.90;10.25;;;24.70;99.90;;;;;;5046989;28;20210;-68
2022/08/20 09:49:57;;;;;;;14.55;10.68;;;24.50;99.90;;;;;;5045637;28;20653;-68
2022/08/20 09:52:27;;;;;;;14.93;11.10;;;24.50;99.90;;;;;;5054158;28;20198;-68
2022/08/20 09:54:57;;;;;;;13.02;9.98;;;24.50;99.90;;;;;;5052169;28;20241;-71
2022/08/20 09:57:27;;;;;;;13.07;10.07;;;24.40;99.90;;;;;;5049783;28;20638;-71
2022/08/20 09:59:58;;;;;;;16.83;11.77;;;24.30;99.90;;;;;;5049896;28;20696;-72
2022/08/20 10:02:28;;;;;;;15.88;10.75;;;24.40;99.90;;;;;;5054637;28;20210;-72
2022/08/20 10:04:55;;;;;;;11.23;9.30;;;24.20;99.90;;;;;;5046215;28;20218;-72
2022/08/20 10:07:23;;;;;;;11.75;8.85;;;24.50;99.90;;;;;;5053314;28;20195;-71
2022/08/20 10:09:50;;;;;;;13.30;9.52;;;24.40;99.90;;;;;;5046502;28;20190;-71
2022/08/20 10:12:17;;;;;;;12.20;8.95;;;24.50;99.90;;;;;;5053011;28;20619;-71
2022/08/20 10:14:44;;;;;;;13.40;9.27;;;24.30;99.90;;;;;;5048924;28;20199;-72
2022/08/20 10:17:12;;;;;;;13.20;9.35;;;23.80;99.90;;;;;;5047665;28;20230;-72
2022/08/20 10:19:41;;;;;;;14.77;9.65;;;24.00;99.90;;;;;;5039605;28;20199;-72
2022/08/20 10:22:08;;;;;;;12.02;9.23;;;24.00;99.90;;;;;;5048912;28;20207;-72
2022/08/20 10:24:35;;;;;;;13.20;9.20;;;24.10;99.90;;;;;;5049267;28;20957;-72
2022/08/20 10:27:02;;;;;;;12.68;9.50;;;24.10;99.90;;;;;;5052687;28;20659;-72
2022/08/20 10:29:36;;;;;;;12.50;9.45;;;24.30;99.90;;;;;;5052461;28;20650;-72
2022/08/20 10:32:11;;;;;;;12.55;9.93;;;24.20;99.90;;;;;;5045932;28;20649;-73
2022/08/20 10:34:44;;;;;;;12.40;9.13;;;24.20;99.90;;;;;;5049337;28;20199;-72
2022/08/20 10:37:15;;;;;;;13.13;9.68;;;24.30;99.90;;;;;;5054737;28;20227;-72
2022/08/20 10:39:42;;;;;;;11.00;8.85;;;24.40;99.90;;;;;;5051896;28;20676;-72
2022/08/20 10:42:09;;;;;;;14.25;9.07;;;24.60;99.90;;;;;;5055228;28;20202;-72
2022/08/20 10:44:37;;;;;;;11.73;9.27;;;25.00;99.90;;;;;;5055877;28;20206;-72
2022/08/20 10:47:19;;;;;;;12.85;9.85;;;24.60;99.90;;;;;;5056052;28;20645;-72
2022/08/20 10:49:48;;;;;;;10.52;8.40;;;24.90;99.90;;;;;;5053557;28;20195;-72
2022/08/20 10:52:15;;;;;;;13.13;9.85;;;25.20;99.90;;;;;;5056184;28;20203;-72
2022/08/20 10:54:48;;;;;;;15.18;9.95;;;25.20;99.90;;;;;;5054177;28;20217;-72
2022/08/20 10:57:17;;;;;;;13.95;9.05;;;25.20;99.90;;;;;;5053413;28;20222;-76
2022/08/20 10:59:48;;;;;;;14.48;10.57;;;25.50;99.90;;;;;;5046159;28;20571;-77
2022/08/20 11:02:16;;;;;;;11.60;8.70;;;25.30;99.90;;;;;;5050163;28;20641;-77
2022/08/20 11:04:50;;;;;;;12.60;9.05;;;25.20;99.90;;;;;;5056487;28;20642;-76
2022/08/20 11:07:20;;;;;;;9.00;6.75;;;25.00;99.90;;;;;;5049846;28;20637;-76
2022/08/20 11:09:49;;;;;;;8.43;7.13;;;25.30;99.90;;;;;;5055748;28;20203;-76
2022/08/20 11:12:16;;;;;;;8.68;6.53;;;25.10;99.90;;;;;;5053910;28;20206;-76
2022/08/20 11:14:43;;;;;;;9.00;7.15;;;25.30;99.90;;;;;;5055111;28;20203;-76
2022/08/20 11:17:10;;;;;;;9.05;6.70;;;25.10;99.90;;;;;;5054296;28;20226;-76
2022/08/20 11:19:41;;;;;;;7.95;6.70;;;25.10;99.90;;;;;;5050754;28;20629;-76
2022/08/20 11:22:10;;;;;;;9.95;7.47;;;24.80;99.90;;;;;;5055306;28;20668;-76
2022/08/20 11:24:38;;;;;;;13.00;9.95;;;24.20;99.90;;;;;;5055254;28;20199;-76
2022/08/20 11:27:06;;;;;;;11.65;9.90;;;23.00;99.90;;;;;;5054517;28;20191;-76
2022/08/20 11:29:33;;;;;;;12.27;10.57;;;22.80;99.90;;;;;;5053172;28;20653;-76
2022/08/20 11:32:01;;;;;;;16.70;11.52;;;22.00;99.90;;;;;;5053738;28;20566;-76
2022/08/20 11:34:28;;;;;;;10.52;9.05;;;21.40;99.90;;;;;;5049064;28;20218;-78
2022/08/20 11:36:57;;;;;;;12.73;10.13;;;21.00;99.90;;;;;;5052623;28;20309;-79
2022/08/20 11:39:26;;;;;;;11.93;10.25;;;20.70;99.90;;;;;;5056034;28;20206;-79
2022/08/20 11:41:53;;;;;;;11.38;10.15;;;20.40;99.90;;;;;;5053176;28;20642;-79
2022/08/20 11:44:19;;;;;;;15.05;11.27;;;20.40;99.90;;;;;;5053079;28;20199;-79
2022/08/20 11:46:46;;;;;;;13.60;10.80;;;20.40;99.90;;;;;;5052512;28;20206;-78
2022/08/20 11:49:13;;;;;;;12.45;10.63;;;20.30;99.90;;;;;;5053617;28;20203;-78
2022/08/20 11:51:40;;;;;;;12.57;9.88;;;20.40;99.90;;;;;;5053982;28;20203;-77
2022/08/20 11:54:07;;;;;;;11.65;9.60;;;20.40;99.90;;;;;;5051421;28;20202;-77
2022/08/20 11:56:35;;;;;;;11.32;8.52;;;20.40;99.90;;;;;;5052711;28;20685;-78
2022/08/20 11:59:02;;;;;;;11.15;8.45;;;20.40;99.90;;;;;;5051968;28;20711;-79
2022/08/20 12:01:30;;;;;;;9.63;7.68;;;20.30;99.90;;;;;;5053191;28;20202;-78
2022/08/20 12:03:56;;;;;;;10.32;8.50;;;20.30;99.90;;;;;;5054561;28;20294;-76
2022/08/20 12:06:23;;;;;;;9.77;8.60;;;20.50;99.90;;;;;;5056418;28;20202;-76
2022/08/20 12:09:02;;;;;;;10.70;8.45;;;20.80;99.90;;;;;;5055319;28;20191;-76
2022/08/20 12:11:29;;;;;;;9.20;7.35;;;20.80;99.90;;;;;;5055138;28;20211;-76
2022/08/20 12:13:58;;;;;;;9.15;7.60;;;20.90;99.90;;;;;;5054877;28;20241;-75
2022/08/20 12:16:25;;;;;;;7.55;6.75;;;21.10;99.90;;;;;;5045715;28;20710;-75
2022/08/20 12:18:52;;;;;;;10.63;7.97;;;21.10;99.90;;;;;;5051914;28;20203;-75
2022/08/20 12:21:19;;;;;;;7.50;6.80;;;21.30;99.90;;;;;;5043885;28;20202;-74
2022/08/20 12:23:46;;;;;;;7.93;5.90;;;21.40;99.90;;;;;;5053762;28;20206;-74
2022/08/20 12:26:15;;;;;;;7.03;6.32;;;21.50;99.90;;;;;;5051814;28;20199;-74
2022/08/20 12:28:42;;;;;;;7.47;6.68;;;21.90;99.90;;;;;;5046719;28;20298;-74
2022/08/20 12:31:10;;;;;;;5.40;4.90;;;21.80;99.90;;;;;;5052895;28;20194;-74
2022/08/20 12:33:37;;;;;;;6.32;5.68;;;21.70;99.90;;;;;;5049215;28;20206;-74
2022/08/20 12:36:04;;;;;;;5.68;4.80;;;21.90;99.90;;;;;;5046572;28;20587;-74
2022/08/20 12:38:31;;;;;;;7.43;5.70;;;22.10;99.90;;;;;;5050151;28;20254;-74
2022/08/20 12:40:58;;;;;;;5.93;5.32;;;22.30;99.90;;;;;;5052934;28;20214;-74
2022/08/20 12:43:25;;;;;;;7.22;6.53;;;22.60;99.90;;;;;;5051776;28;20299;-74
2022/08/20 12:45:52;;;;;;;7.53;6.72;;;22.70;99.90;;;;;;5047797;28;20560;-74
2022/08/20 12:48:21;;;;;;;7.03;6.20;;;23.40;99.90;;;;;;5051703;28;20672;-74
2022/08/20 12:50:48;;;;;;;7.43;6.63;;;23.10;99.90;;;;;;5048962;28;20199;-74
2022/08/20 12:53:15;;;;;;;9.38;8.07;;;23.30;99.90;;;;;;5047379;28;20234;-74
2022/08/20 12:55:42;;;;;;;8.90;6.93;;;23.70;99.90;;;;;;5045774;28;20210;-74
2022/08/20 12:58:10;;;;;;;8.43;7.57;;;23.60;99.90;;;;;;5052567;28;20658;-74